createdAt,value
2022-12-14T00:03:18.576Z,20.50
2022-12-14T00:07:21.716Z,20.98
2022-12-14T00:11:25.214Z,22.90
2022-12-14T00:15:28.175Z,19.35
2022-12-14T00:19:32.419Z,21.17
2022-12-14T00:23:38.872Z,21.88
2022-12-14T00:27:44.475Z,18.80
2022-12-14T00:31:48.652Z,18.05
2022-12-14T00:35:53.150Z,19.77
2022-12-14T00:39:56.120Z,19.92
2022-12-14T00:43:59.042Z,19.15
2022-12-14T00:48:02.256Z,19.75
2022-12-14T00:52:06.585Z,18.75
2022-12-14T00:56:10.026Z,19.05
2022-12-14T01:00:13.905Z,18.85
2022-12-14T01:04:22.204Z,16.15
2022-12-14T01:08:35.058Z,19.23
2022-12-14T01:12:37.915Z,19.90
2022-12-14T01:16:41.051Z,20.00
2022-12-14T01:20:43.967Z,18.75
2022-12-14T01:24:48.460Z,21.25
2022-12-14T01:28:53.493Z,18.77
2022-12-14T01:32:56.338Z,21.05
2022-12-14T01:36:59.226Z,22.27
2022-12-14T01:41:04.325Z,19.25
2022-12-14T01:45:17.492Z,18.92
2022-12-14T01:49:24.513Z,17.73
2022-12-14T01:53:27.761Z,16.73
2022-12-14T01:57:38.185Z,15.23
2022-12-14T02:01:41.414Z,18.42
2022-12-14T02:05:48.780Z,17.30
2022-12-14T02:09:52.643Z,16.70
2022-12-14T02:13:57.541Z,16.95
2022-12-14T02:18:02.855Z,18.38
2022-12-14T02:22:22.417Z,14.88
2022-12-14T02:26:55.953Z,15.73
2022-12-14T02:31:08.665Z,16.35
2022-12-14T02:35:19.805Z,15.35
2022-12-14T02:39:31.932Z,14.15
2022-12-14T02:43:41.055Z,14.88
2022-12-14T02:47:54.456Z,15.52
2022-12-14T02:52:04.461Z,14.45
2022-12-14T02:56:10.960Z,14.13
2022-12-14T03:00:14.611Z,12.68
2022-12-14T03:04:19.026Z,15.00
2022-12-14T03:08:24.032Z,13.50
2022-12-14T03:12:27.071Z,11.73
2022-12-14T03:16:32.160Z,12.57
2022-12-14T03:20:38.530Z,15.00
2022-12-14T03:24:44.533Z,13.55
2022-12-14T03:28:51.451Z,13.50
2022-12-14T03:32:58.082Z,12.85
2022-12-14T03:37:09.155Z,13.10
2022-12-14T03:41:20.188Z,13.07
2022-12-14T03:45:30.706Z,12.90
2022-12-14T03:49:47.356Z,13.73
2022-12-14T03:54:00.871Z,12.07
2022-12-14T03:58:18.974Z,13.10
2022-12-14T04:02:27.663Z,15.98
2022-12-14T04:06:39.273Z,15.50
2022-12-14T04:11:04.912Z,12.38
2022-12-14T04:15:30.521Z,16.95
2022-12-14T04:19:39.024Z,13.75
2022-12-14T04:24:03.491Z,13.10
2022-12-14T04:28:33.032Z,14.48
2022-12-14T04:32:41.481Z,13.05
2022-12-14T04:36:48.313Z,14.50
2022-12-14T04:40:54.520Z,13.00
2022-12-14T04:45:05.777Z,12.80
2022-12-14T04:49:17.279Z,14.65
2022-12-14T04:53:26.937Z,15.73
2022-12-14T04:57:36.709Z,15.98
2022-12-14T05:01:49.506Z,15.55
2022-12-14T05:06:00.262Z,16.30
2022-12-14T05:10:07.203Z,23.65
2022-12-14T05:14:13.829Z,19.63
2022-12-14T05:18:18.266Z,17.50
2022-12-14T05:22:21.655Z,14.45
2022-12-14T05:26:24.474Z,16.05
2022-12-14T05:30:27.472Z,16.73
2022-12-14T05:34:31.913Z,15.00
2022-12-14T05:38:34.736Z,17.83
2022-12-14T05:42:44.169Z,18.80
2022-12-14T05:46:48.441Z,14.10
2022-12-14T05:50:52.939Z,14.73
2022-12-14T05:55:02.344Z,15.40
2022-12-14T05:59:06.931Z,15.85
2022-12-14T06:03:09.895Z,15.38
2022-12-14T06:07:14.112Z,12.95
2022-12-14T06:11:18.774Z,13.20
2022-12-14T06:15:21.606Z,15.35
2022-12-14T06:19:24.498Z,15.35
2022-12-14T06:23:29.109Z,15.93
2022-12-14T06:27:32.523Z,14.57
2022-12-14T06:31:35.638Z,16.45
2022-12-14T06:35:38.471Z,16.00
2022-12-14T06:39:42.651Z,14.90
2022-12-14T06:43:49.279Z,15.30
2022-12-14T06:47:52.681Z,16.30
2022-12-14T06:51:55.662Z,15.35
2022-12-14T06:56:08.198Z,14.18
2022-12-14T07:00:13.167Z,14.32
2022-12-14T07:04:17.563Z,12.45
2022-12-14T07:08:21.409Z,14.88
2022-12-14T07:12:25.781Z,18.75
2022-12-14T07:16:30.410Z,14.77
2022-12-14T07:20:33.300Z,13.30
2022-12-14T07:24:36.176Z,15.88
2022-12-14T07:28:41.072Z,14.48
2022-12-14T07:32:43.894Z,13.23
2022-12-14T07:36:49.610Z,13.88
2022-12-14T07:40:52.492Z,13.23
2022-12-14T07:44:56.760Z,14.43
2022-12-14T07:49:00.751Z,16.90
2022-12-14T07:53:03.639Z,13.57
2022-12-14T07:57:06.486Z,15.35
2022-12-14T08:01:12.770Z,14.50
2022-12-14T08:05:16.381Z,11.57
2022-12-14T08:09:20.168Z,13.50
2022-12-14T08:13:23.130Z,14.70
2022-12-14T08:17:27.379Z,12.25
2022-12-14T08:21:30.751Z,11.52
2022-12-14T08:25:33.602Z,11.82
2022-12-14T08:29:36.451Z,14.15
2022-12-14T08:33:41.626Z,14.05
2022-12-14T08:37:47.645Z,14.18
2022-12-14T08:41:50.693Z,14.32
2022-12-14T08:45:55.740Z,12.52
2022-12-14T08:50:00.184Z,15.15
2022-12-14T08:54:03.014Z,15.57
2022-12-14T08:58:05.984Z,13.55
2022-12-14T09:02:10.263Z,13.98
2022-12-14T09:06:18.103Z,14.98
2022-12-14T09:10:21.071Z,14.02
2022-12-14T09:14:23.928Z,13.95
2022-12-14T09:18:27.437Z,12.85
2022-12-14T09:22:31.965Z,11.63
2022-12-14T09:26:34.895Z,15.45
2022-12-14T09:30:37.827Z,12.63
2022-12-14T09:34:40.705Z,15.48
2022-12-14T09:38:51.018Z,12.02
2022-12-14T09:43:01.235Z,11.38
2022-12-14T09:47:11.863Z,12.63
2022-12-14T09:51:16.874Z,13.18
2022-12-14T09:55:26.162Z,10.73
2022-12-14T09:59:31.901Z,10.45
2022-12-14T10:03:52.919Z,11.82
2022-12-14T10:08:04.937Z,11.07
2022-12-14T10:12:23.586Z,11.95
2022-12-14T10:16:32.107Z,11.88
2022-12-14T10:20:41.762Z,10.18
2022-12-14T10:24:49.227Z,13.63
2022-12-14T10:29:01.421Z,12.32
2022-12-14T10:33:13.583Z,13.57
2022-12-14T10:37:27.739Z,10.35
2022-12-14T10:41:39.484Z,10.73
2022-12-14T10:45:51.623Z,12.65
2022-12-14T10:49:58.665Z,11.65
2022-12-14T10:54:18.255Z,13.57
2022-12-14T10:58:21.087Z,12.32
2022-12-14T11:02:28.948Z,12.23
2022-12-14T11:06:32.259Z,14.52
2022-12-14T11:10:39.163Z,12.63
2022-12-14T11:14:54.648Z,12.18
2022-12-14T11:19:01.866Z,12.57
2022-12-14T11:23:09.472Z,14.30
2022-12-14T11:27:13.179Z,10.85
2022-12-14T11:31:23.182Z,13.88
2022-12-14T11:35:27.602Z,14.02
2022-12-14T11:39:30.906Z,13.40
2022-12-14T11:43:35.668Z,10.13
2022-12-14T11:47:38.590Z,11.30
2022-12-14T11:52:01.140Z,11.25
2022-12-14T11:56:07.332Z,10.55
2022-12-14T12:00:24.538Z,14.65
2022-12-14T12:04:27.471Z,10.45
2022-12-14T12:08:34.267Z,11.45
2022-12-14T12:12:37.989Z,10.68
2022-12-14T12:16:44.484Z,10.15
2022-12-14T12:20:53.712Z,13.50
2022-12-14T12:29:33.692Z,11.50
2022-12-14T12:33:42.280Z,10.25
2022-12-14T12:37:49.752Z,10.20
2022-12-14T12:42:05.262Z,9.80
2022-12-14T12:46:15.476Z,10.93
2022-12-14T12:50:20.671Z,17.35
2022-12-14T12:54:27.974Z,11.00
2022-12-14T12:58:34.757Z,10.07
2022-12-14T13:02:43.280Z,13.50
2022-12-14T13:06:51.900Z,12.75
2022-12-14T13:15:24.998Z,12.07
2022-12-14T13:19:50.675Z,13.45
2022-12-14T13:23:54.478Z,14.50
2022-12-14T13:28:17.176Z,11.77
2022-12-14T13:32:37.423Z,15.00
2022-12-14T13:37:10.971Z,12.52
2022-12-14T13:41:35.042Z,12.18
2022-12-14T13:45:41.227Z,11.65
2022-12-14T13:50:33.753Z,12.80
2022-12-14T13:54:23.453Z,10.50
2022-12-14T13:58:35.033Z,14.20
2022-12-14T14:02:40.459Z,12.57
2022-12-14T14:06:46.032Z,12.35
2022-12-14T14:10:54.120Z,14.43
2022-12-14T14:15:11.111Z,11.05
2022-12-14T14:19:22.961Z,11.25
2022-12-14T14:23:39.408Z,11.07
2022-12-14T14:27:50.196Z,13.93
2022-12-14T14:31:59.485Z,21.08
2022-12-14T14:36:09.529Z,21.17
2022-12-14T14:40:50.993Z,20.10
2022-12-14T14:44:53.102Z,13.05
2022-12-14T14:48:57.140Z,15.20
2022-12-14T14:53:10.919Z,14.50
2022-12-14T14:57:35.273Z,14.77
2022-12-14T15:01:38.563Z,17.67
2022-12-14T15:05:43.352Z,14.32
2022-12-14T15:09:51.617Z,13.77
2022-12-14T15:14:00.531Z,15.90
2022-12-14T15:18:17.713Z,12.88
2022-12-14T15:22:23.586Z,15.82
2022-12-14T15:26:28.876Z,13.52
2022-12-14T15:30:33.512Z,15.23
2022-12-14T15:34:36.448Z,13.48
2022-12-14T15:38:39.310Z,14.48
2022-12-14T15:42:47.857Z,16.30
2022-12-14T15:46:56.130Z,13.43
2022-12-14T15:51:03.055Z,13.43
2022-12-14T15:55:07.966Z,13.85
2022-12-14T15:59:18.365Z,14.85
2022-12-14T16:03:29.823Z,13.63
2022-12-14T16:07:38.425Z,14.18
2022-12-14T16:11:44.621Z,16.80
2022-12-14T16:15:48.186Z,17.92
2022-12-14T16:20:00.482Z,16.65
2022-12-14T16:24:21.935Z,17.50
2022-12-14T16:28:28.922Z,19.75
2022-12-14T16:32:31.853Z,16.77
2022-12-14T16:36:37.900Z,18.00
2022-12-14T16:40:43.260Z,16.50
2022-12-14T16:44:47.025Z,20.17
2022-12-14T16:49:30.390Z,19.83
2022-12-14T16:53:34.977Z,19.17
2022-12-14T16:57:39.972Z,18.85
2022-12-14T17:01:45.622Z,19.17
2022-12-14T17:05:54.497Z,20.70
2022-12-14T17:09:58.908Z,19.88
2022-12-14T17:14:01.805Z,19.27
2022-12-14T17:18:06.088Z,20.95
2022-12-14T17:22:17.407Z,19.08
2022-12-14T17:26:24.416Z,18.63
2022-12-14T17:30:27.890Z,18.33
2022-12-14T17:34:31.349Z,16.20
2022-12-14T17:38:34.323Z,16.08
2022-12-14T17:42:40.244Z,17.50
2022-12-14T17:46:44.042Z,16.35
2022-12-14T17:50:49.658Z,18.00
2022-12-14T17:54:52.657Z,15.77
2022-12-14T17:58:56.870Z,16.10
2022-12-14T18:02:59.957Z,19.73
2022-12-14T18:07:04.057Z,18.88
2022-12-14T18:11:13.386Z,18.10
2022-12-14T18:15:21.302Z,15.88
2022-12-14T18:19:24.956Z,14.50
2022-12-14T18:23:28.925Z,15.93
2022-12-14T18:27:32.325Z,14.73
2022-12-14T18:31:38.713Z,17.13
2022-12-14T18:35:41.747Z,16.98
2022-12-14T18:39:44.643Z,17.55
2022-12-14T18:43:54.161Z,22.90
2022-12-14T18:47:59.061Z,20.45
2022-12-14T18:52:01.973Z,16.05
2022-12-14T18:56:09.446Z,16.95
2022-12-14T19:00:14.799Z,19.55
2022-12-14T19:04:18.974Z,15.65
2022-12-14T19:08:21.837Z,16.15
2022-12-14T19:12:24.723Z,14.57
2022-12-14T19:16:28.265Z,15.50
2022-12-14T19:20:32.574Z,16.80
2022-12-14T19:24:35.822Z,16.42
2022-12-14T19:28:38.861Z,16.77
2022-12-14T19:32:41.774Z,21.65
2022-12-14T19:36:46.134Z,18.02
2022-12-14T19:41:00.064Z,20.83
2022-12-14T19:45:03.103Z,17.00
2022-12-14T19:49:06.684Z,14.93
2022-12-14T19:53:10.997Z,19.17
2022-12-14T19:57:14.018Z,15.35
2022-12-14T20:01:18.675Z,16.25
2022-12-14T20:05:23.650Z,16.05
2022-12-14T20:09:27.787Z,16.52
2022-12-14T20:13:31.358Z,16.27
2022-12-14T20:17:34.494Z,14.50
2022-12-14T20:21:37.425Z,16.65
2022-12-14T20:25:42.266Z,17.08
2022-12-14T20:29:45.153Z,17.08
2022-12-14T20:33:48.196Z,13.50
2022-12-14T20:37:53.963Z,22.35
2022-12-14T20:41:58.219Z,18.20
2022-12-14T20:46:01.687Z,15.45
2022-12-14T20:50:05.516Z,20.15
2022-12-14T20:54:11.728Z,15.68
2022-12-14T20:58:15.895Z,16.35
2022-12-14T21:02:20.587Z,17.00
2022-12-14T21:06:24.318Z,15.60
2022-12-14T21:10:27.152Z,12.40
2022-12-14T21:14:33.092Z,17.17
2022-12-14T21:18:36.059Z,17.52
2022-12-14T21:22:39.468Z,14.88
2022-12-14T21:26:42.515Z,16.05
2022-12-14T21:30:53.061Z,15.23
2022-12-14T21:34:56.104Z,17.52
2022-12-14T21:38:59.008Z,14.43
2022-12-14T21:43:02.972Z,13.98
2022-12-14T21:47:10.057Z,15.30
2022-12-14T21:51:18.182Z,15.32
2022-12-14T21:55:21.044Z,15.45
2022-12-14T21:59:26.713Z,16.58
2022-12-14T22:03:32.631Z,14.48
2022-12-14T22:07:35.823Z,13.13
2022-12-14T22:11:38.709Z,17.48
2022-12-14T22:15:41.604Z,15.68
2022-12-14T22:19:46.061Z,15.05
2022-12-14T22:23:49.019Z,15.52
2022-12-14T22:27:51.905Z,16.60
2022-12-14T22:31:54.771Z,17.52
2022-12-14T22:35:59.621Z,17.65
2022-12-14T22:40:02.857Z,17.52
2022-12-14T22:44:07.085Z,15.80
2022-12-14T22:48:10.206Z,16.33
2022-12-14T22:52:16.502Z,17.55
2022-12-14T22:56:27.018Z,15.68
2022-12-14T23:00:29.888Z,17.52
2022-12-14T23:04:33.023Z,17.73
2022-12-14T23:08:37.188Z,21.70
2022-12-14T23:12:57.628Z,16.55
2022-12-14T23:17:18.789Z,20.15
2022-12-14T23:21:39.467Z,17.20
2022-12-14T23:26:01.305Z,20.58
2022-12-14T23:30:22.037Z,17.90
2022-12-14T23:34:42.544Z,21.08
2022-12-14T23:39:03.192Z,17.45
2022-12-14T23:43:29.395Z,21.48
2022-12-14T23:47:49.797Z,18.45
2022-12-14T23:52:10.019Z,20.15
2022-12-14T23:56:30.356Z,19.92
